sensor_id;sensor_type;location;lat;lon;timestamp;temperature;humidity
35603;DHT22;21725;50.836;4.368;2023-04-25T00:00:08;9.90;99.90
35603;DHT22;21725;50.836;4.368;2023-04-25T00:03:09;10.00;99.90
35603;DHT22;21725;50.836;4.368;2023-04-25T00:06:21;10.00;99.90
35603;DHT22;21725;50.836;4.368;2023-04-25T00:09:24;9.90;99.90
35603;DHT22;21725;50.836;4.368;2023-04-25T00:12:34;9.90;99.90
35603;DHT22;21725;50.836;4.368;2023-04-25T00:15:50;10.00;99.90
35603;DHT22;21725;50.836;4.368;2023-04-25T00:18:59;10.00;99.90
35603;DHT22;21725;50.836;4.368;2023-04-25T00:22:10;10.00;99.90
35603;DHT22;21725;50.836;4.368;2023-04-25T00:25:20;9.90;99.90
35603;DHT22;21725;50.836;4.368;2023-04-25T00:28:32;9.80;99.90
35603;DHT22;21725;50.836;4.368;2023-04-25T00:31:48;9.70;99.90
35603;DHT22;21725;50.836;4.368;2023-04-25T00:34:51;9.70;99.90
35603;DHT22;21725;50.836;4.368;2023-04-25T00:38:05;9.90;99.90
35603;DHT22;21725;50.836;4.368;2023-04-25T00:41:06;9.80;99.90
35603;DHT22;21725;50.836;4.368;2023-04-25T00:44:29;9.80;99.90
35603;DHT22;21725;50.836;4.368;2023-04-25T00:47:41;9.70;99.90
35603;DHT22;21725;50.836;4.368;2023-04-25T00:50:43;9.70;99.90
35603;DHT22;21725;50.836;4.368;2023-04-25T00:53:48;9.80;99.90
35603;DHT22;21725;50.836;4.368;2023-04-25T00:56:52;9.80;99.90
35603;DHT22;21725;50.836;4.368;2023-04-25T01:00:07;10.00;99.90
35603;DHT22;21725;50.836;4.368;2023-04-25T01:03:22;10.00;99.90
35603;DHT22;21725;50.836;4.368;2023-04-25T01:06:41;10.10;99.90
35603;DHT22;21725;50.836;4.368;2023-04-25T01:09:48;10.10;99.90
35603;DHT22;21725;50.836;4.368;2023-04-25T01:12:59;10.10;99.90
35603;DHT22;21725;50.836;4.368;2023-04-25T01:16:12;10.00;99.90
35603;DHT22;21725;50.836;4.368;2023-04-25T01:19:24;9.80;99.90
35603;DHT22;21725;50.836;4.368;2023-04-25T01:22:52;9.90;99.90
35603;DHT22;21725;50.836;4.368;2023-04-25T01:26:03;10.30;99.90
35603;DHT22;21725;50.836;4.368;2023-04-25T01:29:14;10.40;99.90
35603;DHT22;21725;50.836;4.368;2023-04-25T01:32:25;10.50;99.90
35603;DHT22;21725;50.836;4.368;2023-04-25T01:35:39;10.50;99.90
35603;DHT22;21725;50.836;4.368;2023-04-25T01:38:48;10.40;99.90
35603;DHT22;21725;50.836;4.368;2023-04-25T01:41:55;10.30;99.90
35603;DHT22;21725;50.836;4.368;2023-04-25T01:45:04;10.20;99.90
35603;DHT22;21725;50.836;4.368;2023-04-25T01:48:13;10.30;99.90
35603;DHT22;21725;50.836;4.368;2023-04-25T01:51:24;10.30;99.90
35603;DHT22;21725;50.836;4.368;2023-04-25T01:57:55;9.90;99.90
35603;DHT22;21725;50.836;4.368;2023-04-25T02:01:03;9.50;99.90
35603;DHT22;21725;50.836;4.368;2023-04-25T02:04:34;9.30;99.90
35603;DHT22;21725;50.836;4.368;2023-04-25T02:07:46;9.30;99.90
35603;DHT22;21725;50.836;4.368;2023-04-25T02:10:47;9.20;99.90
35603;DHT22;21725;50.836;4.368;2023-04-25T02:13:51;9.10;99.90
35603;DHT22;21725;50.836;4.368;2023-04-25T02:17:12;9.10;99.90
35603;DHT22;21725;50.836;4.368;2023-04-25T02:20:13;8.90;99.90
35603;DHT22;21725;50.836;4.368;2023-04-25T02:23:16;8.80;99.90
35603;DHT22;21725;50.836;4.368;2023-04-25T02:26:55;8.90;99.90
35603;DHT22;21725;50.836;4.368;2023-04-25T02:30:09;8.90;99.90
35603;DHT22;21725;50.836;4.368;2023-04-25T02:33:13;8.90;99.90
35603;DHT22;21725;50.836;4.368;2023-04-25T02:36:24;9.00;99.90
35603;DHT22;21725;50.836;4.368;2023-04-25T02:39:34;8.90;99.90
35603;DHT22;21725;50.836;4.368;2023-04-25T02:42:37;9.20;99.90
35603;DHT22;21725;50.836;4.368;2023-04-25T02:45:40;9.40;99.90
35603;DHT22;21725;50.836;4.368;2023-04-25T02:48:47;9.50;99.90
35603;DHT22;21725;50.836;4.368;2023-04-25T02:51:52;9.60;99.90
35603;DHT22;21725;50.836;4.368;2023-04-25T02:55:05;8.40;99.90
35603;DHT22;21725;50.836;4.368;2023-04-25T02:58:18;9.60;99.90
35603;DHT22;21725;50.836;4.368;2023-04-25T03:01:26;9.50;99.90
35603;DHT22;21725;50.836;4.368;2023-04-25T03:04:29;9.40;99.90
35603;DHT22;21725;50.836;4.368;2023-04-25T03:07:33;8.80;99.90
35603;DHT22;21725;50.836;4.368;2023-04-25T03:10:47;9.10;99.90
35603;DHT22;21725;50.836;4.368;2023-04-25T03:13:50;9.00;99.90
35603;DHT22;21725;50.836;4.368;2023-04-25T03:17:08;8.90;99.90
35603;DHT22;21725;50.836;4.368;2023-04-25T03:20:13;8.90;99.90
35603;DHT22;21725;50.836;4.368;2023-04-25T03:23:16;8.80;99.90
35603;DHT22;21725;50.836;4.368;2023-04-25T03:26:19;8.80;99.90
35603;DHT22;21725;50.836;4.368;2023-04-25T03:29:39;8.90;99.90
35603;DHT22;21725;50.836;4.368;2023-04-25T03:36:03;8.90;99.90
35603;DHT22;21725;50.836;4.368;2023-04-25T03:39:14;8.70;99.90
35603;DHT22;21725;50.836;4.368;2023-04-25T03:42:17;8.80;99.90
35603;DHT22;21725;50.836;4.368;2023-04-25T03:45:41;8.80;99.90
35603;DHT22;21725;50.836;4.368;2023-04-25T03:48:54;8.80;99.90
35603;DHT22;21725;50.836;4.368;2023-04-25T03:52:14;8.90;99.90
35603;DHT22;21725;50.836;4.368;2023-04-25T03:55:16;9.00;99.90
35603;DHT22;21725;50.836;4.368;2023-04-25T03:58:22;8.90;99.90
35603;DHT22;21725;50.836;4.368;2023-04-25T04:01:26;8.80;99.90
35603;DHT22;21725;50.836;4.368;2023-04-25T04:04:45;7.80;99.90
35603;DHT22;21725;50.836;4.368;2023-04-25T04:07:59;8.80;99.90
35603;DHT22;21725;50.836;4.368;2023-04-25T04:11:30;9.00;99.90
35603;DHT22;21725;50.836;4.368;2023-04-25T04:14:34;9.20;99.90
35603;DHT22;21725;50.836;4.368;2023-04-25T04:17:44;9.10;99.90
35603;DHT22;21725;50.836;4.368;2023-04-25T04:21:03;9.10;99.90
35603;DHT22;21725;50.836;4.368;2023-04-25T04:24:29;8.90;99.90
35603;DHT22;21725;50.836;4.368;2023-04-25T04:27:30;8.80;99.90
35603;DHT22;21725;50.836;4.368;2023-04-25T04:30:42;8.70;99.90
35603;DHT22;21725;50.836;4.368;2023-04-25T04:33:50;8.70;99.90
35603;DHT22;21725;50.836;4.368;2023-04-25T04:37:09;9.00;99.90
35603;DHT22;21725;50.836;4.368;2023-04-25T04:40:10;9.20;99.90
35603;DHT22;21725;50.836;4.368;2023-04-25T04:43:19;9.10;99.90
35603;DHT22;21725;50.836;4.368;2023-04-25T04:46:32;9.10;99.90
35603;DHT22;21725;50.836;4.368;2023-04-25T04:50:03;9.00;99.90
35603;DHT22;21725;50.836;4.368;2023-04-25T04:53:04;9.00;99.90
35603;DHT22;21725;50.836;4.368;2023-04-25T04:56:10;9.10;99.90
35603;DHT22;21725;50.836;4.368;2023-04-25T04:59:38;9.30;99.90
35603;DHT22;21725;50.836;4.368;2023-04-25T05:02:44;9.40;99.90
35603;DHT22;21725;50.836;4.368;2023-04-25T05:05:55;9.10;99.90
35603;DHT22;21725;50.836;4.368;2023-04-25T05:09:13;8.90;99.90
35603;DHT22;21725;50.836;4.368;2023-04-25T05:12:26;9.10;99.90
35603;DHT22;21725;50.836;4.368;2023-04-25T05:15:27;9.00;99.90
35603;DHT22;21725;50.836;4.368;2023-04-25T05:18:33;8.70;99.90
35603;DHT22;21725;50.836;4.368;2023-04-25T05:21:43;8.40;99.90
35603;DHT22;21725;50.836;4.368;2023-04-25T05:24:46;8.10;99.90
35603;DHT22;21725;50.836;4.368;2023-04-25T05:28:00;7.90;99.90
35603;DHT22;21725;50.836;4.368;2023-04-25T05:31:06;7.90;99.90
35603;DHT22;21725;50.836;4.368;2023-04-25T05:34:10;7.80;99.90
35603;DHT22;21725;50.836;4.368;2023-04-25T05:37:11;7.80;99.90
35603;DHT22;21725;50.836;4.368;2023-04-25T05:40:12;7.80;99.90
35603;DHT22;21725;50.836;4.368;2023-04-25T05:43:24;7.80;99.90
35603;DHT22;21725;50.836;4.368;2023-04-25T05:46:48;8.20;99.90
35603;DHT22;21725;50.836;4.368;2023-04-25T05:49:51;8.00;99.90
35603;DHT22;21725;50.836;4.368;2023-04-25T05:53:03;8.00;99.90
35603;DHT22;21725;50.836;4.368;2023-04-25T05:56:10;8.00;99.90
35603;DHT22;21725;50.836;4.368;2023-04-25T05:59:13;8.20;99.90
35603;DHT22;21725;50.836;4.368;2023-04-25T06:02:18;8.30;99.90
35603;DHT22;21725;50.836;4.368;2023-04-25T06:05:21;8.50;99.90
35603;DHT22;21725;50.836;4.368;2023-04-25T06:08:22;8.50;99.90
35603;DHT22;21725;50.836;4.368;2023-04-25T06:11:28;8.40;99.90
35603;DHT22;21725;50.836;4.368;2023-04-25T06:14:37;8.30;99.90
35603;DHT22;21725;50.836;4.368;2023-04-25T06:17:41;8.40;99.90
35603;DHT22;21725;50.836;4.368;2023-04-25T06:20:44;8.90;99.90
35603;DHT22;21725;50.836;4.368;2023-04-25T06:23:45;9.20;99.90
35603;DHT22;21725;50.836;4.368;2023-04-25T06:26:50;9.10;99.90
35603;DHT22;21725;50.836;4.368;2023-04-25T06:30:09;9.00;99.90
35603;DHT22;21725;50.836;4.368;2023-04-25T06:33:14;9.10;99.90
35603;DHT22;21725;50.836;4.368;2023-04-25T06:36:20;9.40;99.90
35603;DHT22;21725;50.836;4.368;2023-04-25T06:39:26;9.80;99.90
35603;DHT22;21725;50.836;4.368;2023-04-25T06:42:26;10.10;99.90
35603;DHT22;21725;50.836;4.368;2023-04-25T06:45:30;9.90;99.90
35603;DHT22;21725;50.836;4.368;2023-04-25T06:48:33;9.80;99.90
35603;DHT22;21725;50.836;4.368;2023-04-25T06:51:48;9.90;99.90
35603;DHT22;21725;50.836;4.368;2023-04-25T06:54:51;9.70;99.90
35603;DHT22;21725;50.836;4.368;2023-04-25T06:57:54;9.50;99.90
35603;DHT22;21725;50.836;4.368;2023-04-25T07:01:08;9.60;99.90
35603;DHT22;21725;50.836;4.368;2023-04-25T07:04:31;9.90;99.90
35603;DHT22;21725;50.836;4.368;2023-04-25T07:07:35;10.60;99.90
35603;DHT22;21725;50.836;4.368;2023-04-25T07:10:35;10.10;99.90
35603;DHT22;21725;50.836;4.368;2023-04-25T07:14:01;10.30;99.90
35603;DHT22;21725;50.836;4.368;2023-04-25T07:17:24;10.60;99.50
35603;DHT22;21725;50.836;4.368;2023-04-25T07:24:00;10.70;98.50
35603;DHT22;21725;50.836;4.368;2023-04-25T07:27:03;10.50;98.40
35603;DHT22;21725;50.836;4.368;2023-04-25T07:30:12;10.50;97.70
35603;DHT22;21725;50.836;4.368;2023-04-25T07:33:15;10.40;97.70
35603;DHT22;21725;50.836;4.368;2023-04-25T07:36:16;10.00;98.00
35603;DHT22;21725;50.836;4.368;2023-04-25T07:39:27;10.00;98.70
35603;DHT22;21725;50.836;4.368;2023-04-25T07:46:19;10.80;97.10
35603;DHT22;21725;50.836;4.368;2023-04-25T07:49:31;10.90;97.30
35603;DHT22;21725;50.836;4.368;2023-04-25T07:52:38;10.80;96.40
35603;DHT22;21725;50.836;4.368;2023-04-25T07:55:50;10.60;97.30
35603;DHT22;21725;50.836;4.368;2023-04-25T07:58:50;10.30;97.00
35603;DHT22;21725;50.836;4.368;2023-04-25T08:02:02;10.10;97.40
35603;DHT22;21725;50.836;4.368;2023-04-25T08:05:05;10.00;97.90
35603;DHT22;21725;50.836;4.368;2023-04-25T08:08:29;10.10;98.30
35603;DHT22;21725;50.836;4.368;2023-04-25T08:11:40;11.20;96.60
35603;DHT22;21725;50.836;4.368;2023-04-25T08:14:42;11.20;96.30
35603;DHT22;21725;50.836;4.368;2023-04-25T08:17:53;11.30;95.80
35603;DHT22;21725;50.836;4.368;2023-04-25T08:20:54;11.50;96.00
35603;DHT22;21725;50.836;4.368;2023-04-25T08:23:55;11.20;95.50
35603;DHT22;21725;50.836;4.368;2023-04-25T08:27:18;11.60;94.90
35603;DHT22;21725;50.836;4.368;2023-04-25T08:30:21;11.70;95.40
35603;DHT22;21725;50.836;4.368;2023-04-25T08:33:27;11.60;94.20
35603;DHT22;21725;50.836;4.368;2023-04-25T08:36:36;11.20;94.90
35603;DHT22;21725;50.836;4.368;2023-04-25T08:39:45;11.10;95.40
35603;DHT22;21725;50.836;4.368;2023-04-25T08:42:58;11.90;94.30
35603;DHT22;21725;50.836;4.368;2023-04-25T08:49:48;12.20;94.00
35603;DHT22;21725;50.836;4.368;2023-04-25T08:53:08;12.80;93.10
35603;DHT22;21725;50.836;4.368;2023-04-25T08:56:20;11.90;92.40
35603;DHT22;21725;50.836;4.368;2023-04-25T08:59:23;11.80;93.80
35603;DHT22;21725;50.836;4.368;2023-04-25T09:02:25;12.10;93.30
35603;DHT22;21725;50.836;4.368;2023-04-25T09:05:34;12.70;92.50
35603;DHT22;21725;50.836;4.368;2023-04-25T09:08:38;12.60;91.70
35603;DHT22;21725;50.836;4.368;2023-04-25T09:11:43;12.00;92.10
35603;DHT22;21725;50.836;4.368;2023-04-25T09:15:04;12.10;92.20
35603;DHT22;21725;50.836;4.368;2023-04-25T09:18:15;12.30;91.80
35603;DHT22;21725;50.836;4.368;2023-04-25T09:21:31;12.20;91.10
35603;DHT22;21725;50.836;4.368;2023-04-25T09:24:54;11.80;92.10
35603;DHT22;21725;50.836;4.368;2023-04-25T09:27:55;11.70;91.70
35603;DHT22;21725;50.836;4.368;2023-04-25T09:30:57;11.70;91.40
35603;DHT22;21725;50.836;4.368;2023-04-25T09:34:03;11.50;91.90
35603;DHT22;21725;50.836;4.368;2023-04-25T09:37:11;11.60;92.60
35603;DHT22;21725;50.836;4.368;2023-04-25T09:40:21;11.90;92.70
35603;DHT22;21725;50.836;4.368;2023-04-25T09:43:25;11.20;93.20
35603;DHT22;21725;50.836;4.368;2023-04-25T09:46:35;10.60;94.00
35603;DHT22;21725;50.836;4.368;2023-04-25T09:49:56;10.40;94.60
35603;DHT22;21725;50.836;4.368;2023-04-25T09:53:03;10.60;95.20
35603;DHT22;21725;50.836;4.368;2023-04-25T09:56:11;11.00;94.70
35603;DHT22;21725;50.836;4.368;2023-04-25T09:59:34;11.20;94.80
35603;DHT22;21725;50.836;4.368;2023-04-25T10:02:42;11.50;94.00
35603;DHT22;21725;50.836;4.368;2023-04-25T10:05:56;12.00;92.90
35603;DHT22;21725;50.836;4.368;2023-04-25T10:08:59;11.70;92.10
35603;DHT22;21725;50.836;4.368;2023-04-25T10:12:00;10.20;90.90
35603;DHT22;21725;50.836;4.368;2023-04-25T10:15:04;11.50;91.10
35603;DHT22;21725;50.836;4.368;2023-04-25T10:18:06;11.40;91.20
35603;DHT22;21725;50.836;4.368;2023-04-25T10:21:29;11.40;91.20
35603;DHT22;21725;50.836;4.368;2023-04-25T10:24:38;11.50;91.80
35603;DHT22;21725;50.836;4.368;2023-04-25T10:27:53;11.60;88.90
35603;DHT22;21725;50.836;4.368;2023-04-25T10:31:20;11.90;88.20
35603;DHT22;21725;50.836;4.368;2023-04-25T10:38:05;12.50;87.20
35603;DHT22;21725;50.836;4.368;2023-04-25T10:41:08;12.80;86.60
35603;DHT22;21725;50.836;4.368;2023-04-25T10:44:09;13.10;86.50
35603;DHT22;21725;50.836;4.368;2023-04-25T10:47:10;13.50;85.90
35603;DHT22;21725;50.836;4.368;2023-04-25T10:50:11;13.60;84.50
35603;DHT22;21725;50.836;4.368;2023-04-25T10:53:14;13.30;82.30
35603;DHT22;21725;50.836;4.368;2023-04-25T10:56:19;12.60;84.00
35603;DHT22;21725;50.836;4.368;2023-04-25T10:59:31;12.50;86.00
35603;DHT22;21725;50.836;4.368;2023-04-25T11:02:37;12.50;85.30
35603;DHT22;21725;50.836;4.368;2023-04-25T11:05:40;12.50;86.40
35603;DHT22;21725;50.836;4.368;2023-04-25T11:08:51;12.50;87.60
35603;DHT22;21725;50.836;4.368;2023-04-25T11:12:01;12.50;88.30
35603;DHT22;21725;50.836;4.368;2023-04-25T11:15:07;12.60;90.90
35603;DHT22;21725;50.836;4.368;2023-04-25T11:18:16;13.10;91.50
35603;DHT22;21725;50.836;4.368;2023-04-25T11:21:26;12.70;91.10
35603;DHT22;21725;50.836;4.368;2023-04-25T11:24:29;12.80;91.10
35603;DHT22;21725;50.836;4.368;2023-04-25T11:27:33;12.90;90.50
35603;DHT22;21725;50.836;4.368;2023-04-25T11:30:33;12.90;90.80
35603;DHT22;21725;50.836;4.368;2023-04-25T11:33:38;13.10;89.80
35603;DHT22;21725;50.836;4.368;2023-04-25T11:36:41;12.70;90.70
35603;DHT22;21725;50.836;4.368;2023-04-25T11:39:45;12.70;90.40
35603;DHT22;21725;50.836;4.368;2023-04-25T11:42:51;12.50;90.30
35603;DHT22;21725;50.836;4.368;2023-04-25T11:45:54;12.40;90.40
35603;DHT22;21725;50.836;4.368;2023-04-25T11:48:56;12.10;88.10
35603;DHT22;21725;50.836;4.368;2023-04-25T11:52:07;11.70;87.90
35603;DHT22;21725;50.836;4.368;2023-04-25T11:55:16;11.40;88.40
35603;DHT22;21725;50.836;4.368;2023-04-25T11:58:16;11.40;88.90
35603;DHT22;21725;50.836;4.368;2023-04-25T12:01:32;11.70;86.70
35603;DHT22;21725;50.836;4.368;2023-04-25T12:04:41;11.70;87.60
35603;DHT22;21725;50.836;4.368;2023-04-25T12:07:53;11.80;87.70
35603;DHT22;21725;50.836;4.368;2023-04-25T12:10:59;12.10;85.50
35603;DHT22;21725;50.836;4.368;2023-04-25T12:14:05;12.10;86.40
35603;DHT22;21725;50.836;4.368;2023-04-25T12:17:08;12.40;87.20
35603;DHT22;21725;50.836;4.368;2023-04-25T12:20:14;12.80;87.40
35603;DHT22;21725;50.836;4.368;2023-04-25T12:23:28;13.20;86.40
35603;DHT22;21725;50.836;4.368;2023-04-25T12:29:56;13.60;83.00
35603;DHT22;21725;50.836;4.368;2023-04-25T12:32:59;13.40;83.40
35603;DHT22;21725;50.836;4.368;2023-04-25T12:36:08;13.10;83.60
35603;DHT22;21725;50.836;4.368;2023-04-25T12:39:17;12.80;85.10
35603;DHT22;21725;50.836;4.368;2023-04-25T12:42:22;12.60;84.50
35603;DHT22;21725;50.836;4.368;2023-04-25T12:45:28;12.50;83.40
35603;DHT22;21725;50.836;4.368;2023-04-25T12:48:29;11.90;81.40
35603;DHT22;21725;50.836;4.368;2023-04-25T12:51:30;12.90;80.90
35603;DHT22;21725;50.836;4.368;2023-04-25T12:54:40;13.40;80.70
35603;DHT22;21725;50.836;4.368;2023-04-25T12:57:41;13.50;79.70
35603;DHT22;21725;50.836;4.368;2023-04-25T13:00:48;13.20;82.20
35603;DHT22;21725;50.836;4.368;2023-04-25T13:03:52;13.00;82.90
35603;DHT22;21725;50.836;4.368;2023-04-25T13:06:53;12.90;84.30
35603;DHT22;21725;50.836;4.368;2023-04-25T13:09:56;12.70;85.80
35603;DHT22;21725;50.836;4.368;2023-04-25T13:13:07;12.80;86.20
35603;DHT22;21725;50.836;4.368;2023-04-25T13:16:09;13.00;85.50
35603;DHT22;21725;50.836;4.368;2023-04-25T13:19:14;12.40;86.20
35603;DHT22;21725;50.836;4.368;2023-04-25T13:22:17;12.30;86.70
35603;DHT22;21725;50.836;4.368;2023-04-25T13:25:38;12.10;87.30
35603;DHT22;21725;50.836;4.368;2023-04-25T13:28:56;12.30;87.40
35603;DHT22;21725;50.836;4.368;2023-04-25T13:31:58;12.60;85.00
35603;DHT22;21725;50.836;4.368;2023-04-25T13:35:03;12.80;82.80
35603;DHT22;21725;50.836;4.368;2023-04-25T13:38:07;12.20;83.00
35603;DHT22;21725;50.836;4.368;2023-04-25T13:41:09;12.40;83.70
35603;DHT22;21725;50.836;4.368;2023-04-25T13:44:13;12.70;81.20
35603;DHT22;21725;50.836;4.368;2023-04-25T13:47:14;13.00;82.30
35603;DHT22;21725;50.836;4.368;2023-04-25T13:50:15;12.90;81.80
35603;DHT22;21725;50.836;4.368;2023-04-25T13:53:41;12.80;82.40
35603;DHT22;21725;50.836;4.368;2023-04-25T13:56:41;12.40;81.00
35603;DHT22;21725;50.836;4.368;2023-04-25T13:59:42;12.20;83.00
35603;DHT22;21725;50.836;4.368;2023-04-25T14:02:43;12.50;85.60
35603;DHT22;21725;50.836;4.368;2023-04-25T14:05:50;12.40;86.80
35603;DHT22;21725;50.836;4.368;2023-04-25T14:09:03;12.40;87.40
35603;DHT22;21725;50.836;4.368;2023-04-25T14:12:16;12.20;87.50
35603;DHT22;21725;50.836;4.368;2023-04-25T14:15:18;11.90;87.20
35603;DHT22;21725;50.836;4.368;2023-04-25T14:18:18;11.90;86.60
35603;DHT22;21725;50.836;4.368;2023-04-25T14:21:22;12.10;85.90
35603;DHT22;21725;50.836;4.368;2023-04-25T14:24:25;12.10;85.00
35603;DHT22;21725;50.836;4.368;2023-04-25T14:27:33;12.30;83.90
35603;DHT22;21725;50.836;4.368;2023-04-25T14:30:38;12.20;82.30
35603;DHT22;21725;50.836;4.368;2023-04-25T14:33:39;12.30;82.80
35603;DHT22;21725;50.836;4.368;2023-04-25T14:37:01;12.20;82.60
35603;DHT22;21725;50.836;4.368;2023-04-25T14:40:07;11.50;83.40
35603;DHT22;21725;50.836;4.368;2023-04-25T14:43:15;11.80;84.10
35603;DHT22;21725;50.836;4.368;2023-04-25T14:46:33;12.10;83.40
35603;DHT22;21725;50.836;4.368;2023-04-25T14:49:44;12.40;80.70
35603;DHT22;21725;50.836;4.368;2023-04-25T14:52:58;12.10;80.90
35603;DHT22;21725;50.836;4.368;2023-04-25T14:56:04;12.60;81.50
35603;DHT22;21725;50.836;4.368;2023-04-25T14:59:05;12.80;83.20
35603;DHT22;21725;50.836;4.368;2023-04-25T15:05:38;12.90;82.30
35603;DHT22;21725;50.836;4.368;2023-04-25T15:08:39;12.60;82.90
35603;DHT22;21725;50.836;4.368;2023-04-25T15:12:09;12.60;83.20
35603;DHT22;21725;50.836;4.368;2023-04-25T15:15:12;12.50;84.00
35603;DHT22;21725;50.836;4.368;2023-04-25T15:18:17;12.20;84.90
35603;DHT22;21725;50.836;4.368;2023-04-25T15:21:27;12.20;85.60
35603;DHT22;21725;50.836;4.368;2023-04-25T15:24:33;12.20;85.00
35603;DHT22;21725;50.836;4.368;2023-04-25T15:27:38;12.30;84.30
35603;DHT22;21725;50.836;4.368;2023-04-25T15:30:54;12.60;83.50
35603;DHT22;21725;50.836;4.368;2023-04-25T15:33:58;12.70;81.70
35603;DHT22;21725;50.836;4.368;2023-04-25T15:37:04;12.50;81.70
35603;DHT22;21725;50.836;4.368;2023-04-25T15:40:09;12.40;81.50
35603;DHT22;21725;50.836;4.368;2023-04-25T15:43:15;12.10;82.80
35603;DHT22;21725;50.836;4.368;2023-04-25T15:46:25;12.20;82.10
35603;DHT22;21725;50.836;4.368;2023-04-25T15:49:26;12.10;82.60
35603;DHT22;21725;50.836;4.368;2023-04-25T15:52:33;11.90;83.90
35603;DHT22;21725;50.836;4.368;2023-04-25T15:55:41;12.10;84.20
35603;DHT22;21725;50.836;4.368;2023-04-25T15:58:44;12.10;85.30
35603;DHT22;21725;50.836;4.368;2023-04-25T16:01:45;12.10;85.60
35603;DHT22;21725;50.836;4.368;2023-04-25T16:05:01;12.30;84.30
35603;DHT22;21725;50.836;4.368;2023-04-25T16:08:07;12.30;84.20
35603;DHT22;21725;50.836;4.368;2023-04-25T16:11:08;12.30;84.50
35603;DHT22;21725;50.836;4.368;2023-04-25T16:14:16;12.00;84.20
35603;DHT22;21725;50.836;4.368;2023-04-25T16:17:20;11.60;85.30
35603;DHT22;21725;50.836;4.368;2023-04-25T16:20:26;12.00;86.10
35603;DHT22;21725;50.836;4.368;2023-04-25T16:23:29;10.80;85.50
35603;DHT22;21725;50.836;4.368;2023-04-25T16:26:39;11.60;86.00
35603;DHT22;21725;50.836;4.368;2023-04-25T16:29:43;11.60;85.60
35603;DHT22;21725;50.836;4.368;2023-04-25T16:32:51;11.70;85.30
35603;DHT22;21725;50.836;4.368;2023-04-25T16:35:55;11.80;85.20
35603;DHT22;21725;50.836;4.368;2023-04-25T16:39:33;11.90;85.00
35603;DHT22;21725;50.836;4.368;2023-04-25T16:42:48;11.50;84.90
35603;DHT22;21725;50.836;4.368;2023-04-25T16:46:08;11.60;85.60
35603;DHT22;21725;50.836;4.368;2023-04-25T16:49:11;11.40;85.60
35603;DHT22;21725;50.836;4.368;2023-04-25T16:52:14;11.50;85.50
35603;DHT22;21725;50.836;4.368;2023-04-25T16:55:37;11.80;84.00
35603;DHT22;21725;50.836;4.368;2023-04-25T16:58:53;11.60;83.60
35603;DHT22;21725;50.836;4.368;2023-04-25T17:01:57;11.80;83.00
35603;DHT22;21725;50.836;4.368;2023-04-25T17:05:05;11.90;82.70
35603;DHT22;21725;50.836;4.368;2023-04-25T17:08:11;11.80;85.00
35603;DHT22;21725;50.836;4.368;2023-04-25T17:11:15;11.90;85.40
35603;DHT22;21725;50.836;4.368;2023-04-25T17:14:26;11.50;87.00
35603;DHT22;21725;50.836;4.368;2023-04-25T17:17:32;11.40;87.50
35603;DHT22;21725;50.836;4.368;2023-04-25T17:20:36;11.60;87.40
35603;DHT22;21725;50.836;4.368;2023-04-25T17:23:36;11.30;87.30
35603;DHT22;21725;50.836;4.368;2023-04-25T17:26:52;11.40;87.30
35603;DHT22;21725;50.836;4.368;2023-04-25T17:29:55;11.40;87.50
35603;DHT22;21725;50.836;4.368;2023-04-25T17:33:14;11.00;88.40
35603;DHT22;21725;50.836;4.368;2023-04-25T17:36:25;10.90;88.10
35603;DHT22;21725;50.836;4.368;2023-04-25T17:39:31;11.10;88.00
35603;DHT22;21725;50.836;4.368;2023-04-25T17:42:54;11.20;87.90
35603;DHT22;21725;50.836;4.368;2023-04-25T17:46:05;11.20;88.20
35603;DHT22;21725;50.836;4.368;2023-04-25T17:49:06;11.20;87.60
35603;DHT22;21725;50.836;4.368;2023-04-25T17:52:27;11.00;87.70
35603;DHT22;21725;50.836;4.368;2023-04-25T17:55:38;10.60;87.90
35603;DHT22;21725;50.836;4.368;2023-04-25T17:58:47;10.10;89.10
35603;DHT22;21725;50.836;4.368;2023-04-25T18:01:50;9.90;89.00
35603;DHT22;21725;50.836;4.368;2023-04-25T18:04:54;10.20;87.90
35603;DHT22;21725;50.836;4.368;2023-04-25T18:07:56;9.80;87.50
35603;DHT22;21725;50.836;4.368;2023-04-25T18:10:56;10.50;87.60
35603;DHT22;21725;50.836;4.368;2023-04-25T18:13:58;10.50;87.10
35603;DHT22;21725;50.836;4.368;2023-04-25T18:17:00;10.50;86.60
35603;DHT22;21725;50.836;4.368;2023-04-25T18:20:03;10.50;85.50
35603;DHT22;21725;50.836;4.368;2023-04-25T18:23:09;10.50;86.30
35603;DHT22;21725;50.836;4.368;2023-04-25T18:26:10;10.50;86.60
35603;DHT22;21725;50.836;4.368;2023-04-25T18:29:12;10.50;85.60
35603;DHT22;21725;50.836;4.368;2023-04-25T18:32:13;9.70;85.20
35603;DHT22;21725;50.836;4.368;2023-04-25T18:35:13;10.40;86.50
35603;DHT22;21725;50.836;4.368;2023-04-25T18:38:14;10.40;87.30
35603;DHT22;21725;50.836;4.368;2023-04-25T18:41:15;10.40;88.40
35603;DHT22;21725;50.836;4.368;2023-04-25T18:44:16;10.00;90.10
35603;DHT22;21725;50.836;4.368;2023-04-25T18:47:17;9.80;90.60
35603;DHT22;21725;50.836;4.368;2023-04-25T18:50:18;9.80;91.00
35603;DHT22;21725;50.836;4.368;2023-04-25T18:53:20;9.70;91.30
35603;DHT22;21725;50.836;4.368;2023-04-25T18:56:22;9.40;91.70
35603;DHT22;21725;50.836;4.368;2023-04-25T18:59:25;9.10;92.10
35603;DHT22;21725;50.836;4.368;2023-04-25T19:02:26;9.10;92.40
35603;DHT22;21725;50.836;4.368;2023-04-25T19:05:26;9.20;92.30
35603;DHT22;21725;50.836;4.368;2023-04-25T19:08:27;9.30;92.00
35603;DHT22;21725;50.836;4.368;2023-04-25T19:11:28;9.20;91.60
35603;DHT22;21725;50.836;4.368;2023-04-25T19:14:32;9.10;91.60
35603;DHT22;21725;50.836;4.368;2023-04-25T19:17:33;9.00;91.80
35603;DHT22;21725;50.836;4.368;2023-04-25T19:20:34;9.00;91.80
35603;DHT22;21725;50.836;4.368;2023-04-25T19:23:35;8.90;92.10
35603;DHT22;21725;50.836;4.368;2023-04-25T19:26:36;9.00;92.20
35603;DHT22;21725;50.836;4.368;2023-04-25T19:29:36;9.00;92.20
35603;DHT22;21725;50.836;4.368;2023-04-25T19:32:43;8.90;92.50
35603;DHT22;21725;50.836;4.368;2023-04-25T19:35:44;8.90;92.60
35603;DHT22;21725;50.836;4.368;2023-04-25T19:38:45;8.70;92.90
35603;DHT22;21725;50.836;4.368;2023-04-25T19:41:46;8.60;93.10
35603;DHT22;21725;50.836;4.368;2023-04-25T19:44:50;8.70;93.20
35603;DHT22;21725;50.836;4.368;2023-04-25T19:47:52;8.60;93.30
35603;DHT22;21725;50.836;4.368;2023-04-25T19:50:53;8.70;93.50
35603;DHT22;21725;50.836;4.368;2023-04-25T19:53:53;8.80;93.30
35603;DHT22;21725;50.836;4.368;2023-04-25T19:56:55;8.90;93.30
35603;DHT22;21725;50.836;4.368;2023-04-25T19:59:55;9.00;93.40
35603;DHT22;21725;50.836;4.368;2023-04-25T20:02:56;9.00;93.20
35603;DHT22;21725;50.836;4.368;2023-04-25T20:05:57;8.90;93.40
35603;DHT22;21725;50.836;4.368;2023-04-25T20:08:58;8.90;93.50
35603;DHT22;21725;50.836;4.368;2023-04-25T20:11:59;8.90;93.60
35603;DHT22;21725;50.836;4.368;2023-04-25T20:14:59;8.90;93.60
35603;DHT22;21725;50.836;4.368;2023-04-25T20:18:01;8.90;93.60
35603;DHT22;21725;50.836;4.368;2023-04-25T20:21:01;9.00;93.60